sensor_id;sensor_type;location;lat;lon;timestamp;P1;durP1;ratioP1;P2;durP2;ratioP2
23676;SDS011;31493;49.058;12.190;2022-11-20T00:01:38;66.20;;;32.67;;
23676;SDS011;31493;49.058;12.190;2022-11-20T00:04:05;61.17;;;32.10;;
23676;SDS011;31493;49.058;12.190;2022-11-20T00:06:32;67.07;;;34.70;;
23676;SDS011;31493;49.058;12.190;2022-11-20T00:09:00;59.88;;;31.85;;
23676;SDS011;31493;49.058;12.190;2022-11-20T00:11:27;59.70;;;30.88;;
23676;SDS011;31493;49.058;12.190;2022-11-20T00:13:55;60.73;;;30.33;;
23676;SDS011;31493;49.058;12.190;2022-11-20T00:16:26;62.22;;;31.33;;
23676;SDS011;31493;49.058;12.190;2022-11-20T00:18:54;69.10;;;32.15;;
23676;SDS011;31493;49.058;12.190;2022-11-20T00:21:22;64.65;;;31.40;;
23676;SDS011;31493;49.058;12.190;2022-11-20T00:23:50;77.38;;;33.42;;
23676;SDS011;31493;49.058;12.190;2022-11-20T00:26:18;66.85;;;33.40;;
23676;SDS011;31493;49.058;12.190;2022-11-20T00:28:48;62.75;;;30.30;;
23676;SDS011;31493;49.058;12.190;2022-11-20T00:31:16;65.38;;;34.13;;
23676;SDS011;31493;49.058;12.190;2022-11-20T00:33:45;73.57;;;32.88;;
23676;SDS011;31493;49.058;12.190;2022-11-20T00:36:14;138.02;;;48.38;;
23676;SDS011;31493;49.058;12.190;2022-11-20T00:38:42;91.75;;;38.38;;
23676;SDS011;31493;49.058;12.190;2022-11-20T00:41:10;65.53;;;32.20;;
23676;SDS011;31493;49.058;12.190;2022-11-20T00:43:41;60.03;;;31.42;;
23676;SDS011;31493;49.058;12.190;2022-11-20T00:46:09;59.55;;;32.17;;
23676;SDS011;31493;49.058;12.190;2022-11-20T00:48:38;91.90;;;37.58;;
23676;SDS011;31493;49.058;12.190;2022-11-20T00:51:07;65.82;;;32.25;;
23676;SDS011;31493;49.058;12.190;2022-11-20T00:53:34;68.85;;;32.40;;
23676;SDS011;31493;49.058;12.190;2022-11-20T00:56:03;70.85;;;33.55;;
23676;SDS011;31493;49.058;12.190;2022-11-20T00:58:32;63.85;;;30.80;;
23676;SDS011;31493;49.058;12.190;2022-11-20T01:01:00;71.65;;;32.38;;
23676;SDS011;31493;49.058;12.190;2022-11-20T01:03:30;70.72;;;33.35;;
23676;SDS011;31493;49.058;12.190;2022-11-20T01:05:59;93.78;;;33.05;;
23676;SDS011;31493;49.058;12.190;2022-11-20T01:08:30;68.68;;;31.80;;
23676;SDS011;31493;49.058;12.190;2022-11-20T01:10:58;68.97;;;32.03;;
23676;SDS011;31493;49.058;12.190;2022-11-20T01:13:26;61.38;;;30.63;;
23676;SDS011;31493;49.058;12.190;2022-11-20T01:16:07;65.28;;;31.63;;
23676;SDS011;31493;49.058;12.190;2022-11-20T01:18:36;57.28;;;29.10;;
23676;SDS011;31493;49.058;12.190;2022-11-20T01:21:05;58.95;;;29.02;;
23676;SDS011;31493;49.058;12.190;2022-11-20T01:23:37;61.53;;;30.98;;
23676;SDS011;31493;49.058;12.190;2022-11-20T01:26:05;61.28;;;30.23;;
23676;SDS011;31493;49.058;12.190;2022-11-20T01:28:35;68.63;;;33.00;;
23676;SDS011;31493;49.058;12.190;2022-11-20T01:31:10;57.63;;;29.88;;
23676;SDS011;31493;49.058;12.190;2022-11-20T01:33:38;58.35;;;30.67;;
23676;SDS011;31493;49.058;12.190;2022-11-20T01:36:06;54.58;;;27.90;;
23676;SDS011;31493;49.058;12.190;2022-11-20T01:38:33;59.23;;;30.20;;
23676;SDS011;31493;49.058;12.190;2022-11-20T01:41:02;58.10;;;29.10;;
23676;SDS011;31493;49.058;12.190;2022-11-20T01:43:29;63.22;;;30.95;;
23676;SDS011;31493;49.058;12.190;2022-11-20T01:45:56;64.53;;;32.45;;
23676;SDS011;31493;49.058;12.190;2022-11-20T01:48:26;65.20;;;32.70;;
23676;SDS011;31493;49.058;12.190;2022-11-20T01:50:58;65.05;;;31.30;;
23676;SDS011;31493;49.058;12.190;2022-11-20T01:53:29;68.22;;;31.90;;
23676;SDS011;31493;49.058;12.190;2022-11-20T01:56:00;78.78;;;36.00;;
23676;SDS011;31493;49.058;12.190;2022-11-20T01:58:30;72.50;;;35.35;;
23676;SDS011;31493;49.058;12.190;2022-11-20T02:01:02;74.80;;;34.58;;
23676;SDS011;31493;49.058;12.190;2022-11-20T02:03:30;71.97;;;33.85;;
23676;SDS011;31493;49.058;12.190;2022-11-20T02:05:59;71.15;;;33.80;;
23676;SDS011;31493;49.058;12.190;2022-11-20T02:08:30;63.58;;;32.15;;
23676;SDS011;31493;49.058;12.190;2022-11-20T02:11:00;64.53;;;32.53;;
23676;SDS011;31493;49.058;12.190;2022-11-20T02:13:27;63.53;;;30.83;;
23676;SDS011;31493;49.058;12.190;2022-11-20T02:16:16;64.47;;;32.05;;
23676;SDS011;31493;49.058;12.190;2022-11-20T02:18:46;59.10;;;29.55;;
23676;SDS011;31493;49.058;12.190;2022-11-20T02:24:02;67.55;;;30.73;;
23676;SDS011;31493;49.058;12.190;2022-11-20T02:26:32;59.67;;;30.83;;
23676;SDS011;31493;49.058;12.190;2022-11-20T02:29:02;59.78;;;29.77;;
23676;SDS011;31493;49.058;12.190;2022-11-20T02:31:33;64.83;;;30.97;;
23676;SDS011;31493;49.058;12.190;2022-11-20T02:34:02;64.57;;;32.08;;
23676;SDS011;31493;49.058;12.190;2022-11-20T02:36:29;61.10;;;31.40;;
23676;SDS011;31493;49.058;12.190;2022-11-20T02:38:58;58.80;;;30.40;;
23676;SDS011;31493;49.058;12.190;2022-11-20T02:41:31;72.70;;;31.77;;
23676;SDS011;31493;49.058;12.190;2022-11-20T02:43:59;58.63;;;30.02;;
23676;SDS011;31493;49.058;12.190;2022-11-20T02:46:27;57.30;;;29.70;;
23676;SDS011;31493;49.058;12.190;2022-11-20T02:48:54;66.53;;;31.35;;
23676;SDS011;31493;49.058;12.190;2022-11-20T02:51:21;79.32;;;32.97;;
23676;SDS011;31493;49.058;12.190;2022-11-20T02:53:48;63.03;;;30.15;;
23676;SDS011;31493;49.058;12.190;2022-11-20T02:56:15;63.40;;;31.35;;
23676;SDS011;31493;49.058;12.190;2022-11-20T02:58:43;53.72;;;28.45;;
23676;SDS011;31493;49.058;12.190;2022-11-20T03:01:10;62.15;;;29.10;;
23676;SDS011;31493;49.058;12.190;2022-11-20T03:03:38;52.63;;;28.50;;
23676;SDS011;31493;49.058;12.190;2022-11-20T03:06:05;53.03;;;28.20;;
23676;SDS011;31493;49.058;12.190;2022-11-20T03:08:33;64.20;;;29.42;;
23676;SDS011;31493;49.058;12.190;2022-11-20T03:11:04;66.95;;;30.90;;
23676;SDS011;31493;49.058;12.190;2022-11-20T03:13:33;60.95;;;29.73;;
23676;SDS011;31493;49.058;12.190;2022-11-20T03:16:06;52.35;;;26.20;;
23676;SDS011;31493;49.058;12.190;2022-11-20T03:18:37;54.22;;;27.25;;
23676;SDS011;31493;49.058;12.190;2022-11-20T03:21:04;53.47;;;28.23;;
23676;SDS011;31493;49.058;12.190;2022-11-20T03:23:32;53.00;;;27.50;;
23676;SDS011;31493;49.058;12.190;2022-11-20T03:26:09;54.05;;;27.58;;
23676;SDS011;31493;49.058;12.190;2022-11-20T03:28:38;51.38;;;27.08;;
23676;SDS011;31493;49.058;12.190;2022-11-20T03:31:08;51.05;;;26.63;;
23676;SDS011;31493;49.058;12.190;2022-11-20T03:33:36;53.92;;;27.17;;
23676;SDS011;31493;49.058;12.190;2022-11-20T03:36:04;60.08;;;29.70;;
23676;SDS011;31493;49.058;12.190;2022-11-20T03:38:33;69.43;;;32.67;;
23676;SDS011;31493;49.058;12.190;2022-11-20T03:41:01;62.28;;;29.88;;
23676;SDS011;31493;49.058;12.190;2022-11-20T03:43:29;52.75;;;28.90;;
23676;SDS011;31493;49.058;12.190;2022-11-20T03:45:56;50.78;;;26.30;;
23676;SDS011;31493;49.058;12.190;2022-11-20T03:48:25;49.08;;;25.73;;
23676;SDS011;31493;49.058;12.190;2022-11-20T03:50:52;48.00;;;24.38;;
23676;SDS011;31493;49.058;12.190;2022-11-20T03:53:20;49.70;;;25.25;;
23676;SDS011;31493;49.058;12.190;2022-11-20T03:55:50;48.63;;;24.50;;
23676;SDS011;31493;49.058;12.190;2022-11-20T03:58:17;42.75;;;23.30;;
23676;SDS011;31493;49.058;12.190;2022-11-20T04:00:44;53.95;;;25.50;;
23676;SDS011;31493;49.058;12.190;2022-11-20T04:03:11;47.50;;;24.60;;
23676;SDS011;31493;49.058;12.190;2022-11-20T04:05:40;46.22;;;23.50;;
23676;SDS011;31493;49.058;12.190;2022-11-20T04:08:07;39.88;;;21.08;;
23676;SDS011;31493;49.058;12.190;2022-11-20T04:10:34;44.55;;;22.90;;
23676;SDS011;31493;49.058;12.190;2022-11-20T04:13:01;36.70;;;21.08;;
23676;SDS011;31493;49.058;12.190;2022-11-20T04:15:28;40.28;;;21.92;;
23676;SDS011;31493;49.058;12.190;2022-11-20T04:17:55;42.50;;;22.45;;
23676;SDS011;31493;49.058;12.190;2022-11-20T04:20:22;45.33;;;23.27;;
23676;SDS011;31493;49.058;12.190;2022-11-20T04:22:50;42.10;;;22.55;;
23676;SDS011;31493;49.058;12.190;2022-11-20T04:25:20;39.33;;;21.75;;
23676;SDS011;31493;49.058;12.190;2022-11-20T04:27:47;38.08;;;21.15;;
23676;SDS011;31493;49.058;12.190;2022-11-20T04:30:14;39.72;;;21.67;;
23676;SDS011;31493;49.058;12.190;2022-11-20T04:32:41;37.10;;;21.55;;
23676;SDS011;31493;49.058;12.190;2022-11-20T04:35:08;39.50;;;21.58;;
23676;SDS011;31493;49.058;12.190;2022-11-20T04:37:35;38.05;;;21.08;;
23676;SDS011;31493;49.058;12.190;2022-11-20T04:40:04;39.15;;;20.05;;
23676;SDS011;31493;49.058;12.190;2022-11-20T04:42:32;35.45;;;19.38;;
23676;SDS011;31493;49.058;12.190;2022-11-20T04:44:59;32.00;;;17.73;;
23676;SDS011;31493;49.058;12.190;2022-11-20T04:47:26;33.70;;;17.58;;
23676;SDS011;31493;49.058;12.190;2022-11-20T04:49:53;33.92;;;18.15;;
23676;SDS011;31493;49.058;12.190;2022-11-20T04:52:20;31.02;;;16.48;;
23676;SDS011;31493;49.058;12.190;2022-11-20T04:54:47;33.03;;;17.48;;
23676;SDS011;31493;49.058;12.190;2022-11-20T04:57:15;34.95;;;18.17;;
23676;SDS011;31493;49.058;12.190;2022-11-20T04:59:42;33.53;;;17.50;;
23676;SDS011;31493;49.058;12.190;2022-11-20T05:02:09;31.60;;;16.85;;
23676;SDS011;31493;49.058;12.190;2022-11-20T05:04:37;32.20;;;17.38;;
23676;SDS011;31493;49.058;12.190;2022-11-20T05:07:04;28.50;;;15.88;;
23676;SDS011;31493;49.058;12.190;2022-11-20T05:09:31;36.30;;;17.80;;
23676;SDS011;31493;49.058;12.190;2022-11-20T05:11:58;34.05;;;17.33;;
23676;SDS011;31493;49.058;12.190;2022-11-20T05:14:26;35.30;;;18.42;;
23676;SDS011;31493;49.058;12.190;2022-11-20T05:16:53;33.50;;;17.85;;
23676;SDS011;31493;49.058;12.190;2022-11-20T05:19:20;31.65;;;17.50;;
23676;SDS011;31493;49.058;12.190;2022-11-20T05:21:47;38.20;;;18.83;;
23676;SDS011;31493;49.058;12.190;2022-11-20T05:24:14;36.92;;;19.02;;
23676;SDS011;31493;49.058;12.190;2022-11-20T05:26:41;30.77;;;17.38;;
23676;SDS011;31493;49.058;12.190;2022-11-20T05:29:09;31.75;;;16.67;;
23676;SDS011;31493;49.058;12.190;2022-11-20T05:34:05;27.83;;;14.50;;
23676;SDS011;31493;49.058;12.190;2022-11-20T05:36:32;25.95;;;14.90;;
23676;SDS011;31493;49.058;12.190;2022-11-20T05:38:59;27.83;;;14.82;;
23676;SDS011;31493;49.058;12.190;2022-11-20T05:41:26;27.23;;;15.05;;
23676;SDS011;31493;49.058;12.190;2022-11-20T05:43:55;26.50;;;15.07;;
23676;SDS011;31493;49.058;12.190;2022-11-20T05:46:23;24.60;;;13.90;;
23676;SDS011;31493;49.058;12.190;2022-11-20T05:48:51;24.88;;;13.98;;
23676;SDS011;31493;49.058;12.190;2022-11-20T05:51:19;23.80;;;13.20;;
23676;SDS011;31493;49.058;12.190;2022-11-20T05:53:46;30.10;;;14.85;;
23676;SDS011;31493;49.058;12.190;2022-11-20T05:56:14;39.45;;;17.95;;
23676;SDS011;31493;49.058;12.190;2022-11-20T05:58:43;35.40;;;18.52;;
23676;SDS011;31493;49.058;12.190;2022-11-20T06:01:11;36.25;;;19.17;;
23676;SDS011;31493;49.058;12.190;2022-11-20T06:03:40;41.50;;;20.60;;
23676;SDS011;31493;49.058;12.190;2022-11-20T06:06:10;39.17;;;19.67;;
23676;SDS011;31493;49.058;12.190;2022-11-20T06:08:37;42.22;;;19.75;;
23676;SDS011;31493;49.058;12.190;2022-11-20T06:11:04;49.55;;;19.63;;
23676;SDS011;31493;49.058;12.190;2022-11-20T06:13:33;48.63;;;20.55;;
23676;SDS011;31493;49.058;12.190;2022-11-20T06:16:00;42.67;;;20.55;;
23676;SDS011;31493;49.058;12.190;2022-11-20T06:18:28;39.45;;;18.02;;
23676;SDS011;31493;49.058;12.190;2022-11-20T06:20:59;40.22;;;20.50;;
23676;SDS011;31493;49.058;12.190;2022-11-20T06:23:29;36.63;;;18.08;;
23676;SDS011;31493;49.058;12.190;2022-11-20T06:25:57;102.85;;;22.13;;
23676;SDS011;31493;49.058;12.190;2022-11-20T06:28:27;63.92;;;21.75;;
23676;SDS011;31493;49.058;12.190;2022-11-20T06:30:54;43.13;;;19.90;;
23676;SDS011;31493;49.058;12.190;2022-11-20T06:33:21;48.33;;;21.00;;
23676;SDS011;31493;49.058;12.190;2022-11-20T06:35:48;40.92;;;20.85;;
23676;SDS011;31493;49.058;12.190;2022-11-20T06:38:15;49.30;;;20.73;;
23676;SDS011;31493;49.058;12.190;2022-11-20T06:40:43;25.38;;;12.32;;
23676;SDS011;31493;49.058;12.190;2022-11-20T06:43:10;31.50;;;18.20;;
23676;SDS011;31493;49.058;12.190;2022-11-20T06:45:37;34.63;;;18.85;;
23676;SDS011;31493;49.058;12.190;2022-11-20T06:48:04;36.55;;;19.23;;
23676;SDS011;31493;49.058;12.190;2022-11-20T06:50:31;33.42;;;17.83;;
23676;SDS011;31493;49.058;12.190;2022-11-20T06:53:00;33.92;;;18.15;;
23676;SDS011;31493;49.058;12.190;2022-11-20T06:55:28;35.83;;;18.08;;
23676;SDS011;31493;49.058;12.190;2022-11-20T06:57:57;32.40;;;16.55;;
23676;SDS011;31493;49.058;12.190;2022-11-20T07:00:24;31.17;;;16.33;;
23676;SDS011;31493;49.058;12.190;2022-11-20T07:02:51;19.75;;;9.27;;
23676;SDS011;31493;49.058;12.190;2022-11-20T07:05:18;34.65;;;16.73;;
23676;SDS011;31493;49.058;12.190;2022-11-20T07:07:45;32.55;;;16.00;;
23676;SDS011;31493;49.058;12.190;2022-11-20T07:10:12;33.67;;;17.58;;
23676;SDS011;31493;49.058;12.190;2022-11-20T07:12:40;36.53;;;17.45;;
23676;SDS011;31493;49.058;12.190;2022-11-20T07:15:08;37.42;;;18.52;;
23676;SDS011;31493;49.058;12.190;2022-11-20T07:17:35;32.85;;;15.57;;
23676;SDS011;31493;49.058;12.190;2022-11-20T07:20:02;31.85;;;16.65;;
23676;SDS011;31493;49.058;12.190;2022-11-20T07:22:30;29.15;;;14.30;;
23676;SDS011;31493;49.058;12.190;2022-11-20T07:24:57;26.05;;;14.50;;
23676;SDS011;31493;49.058;12.190;2022-11-20T07:27:24;30.88;;;15.43;;
23676;SDS011;31493;49.058;12.190;2022-11-20T07:29:51;37.78;;;16.15;;
23676;SDS011;31493;49.058;12.190;2022-11-20T07:32:19;31.38;;;15.52;;
23676;SDS011;31493;49.058;12.190;2022-11-20T07:34:46;32.05;;;16.92;;
23676;SDS011;31493;49.058;12.190;2022-11-20T07:37:13;28.73;;;15.10;;
23676;SDS011;31493;49.058;12.190;2022-11-20T07:39:41;29.65;;;15.60;;
23676;SDS011;31493;49.058;12.190;2022-11-20T07:42:08;31.38;;;16.10;;
23676;SDS011;31493;49.058;12.190;2022-11-20T07:44:35;23.92;;;13.85;;
23676;SDS011;31493;49.058;12.190;2022-11-20T07:47:02;24.95;;;13.82;;
23676;SDS011;31493;49.058;12.190;2022-11-20T07:49:31;16.23;;;8.48;;
23676;SDS011;31493;49.058;12.190;2022-11-20T07:54:25;25.65;;;12.90;;
23676;SDS011;31493;49.058;12.190;2022-11-20T07:56:52;20.63;;;11.25;;
23676;SDS011;31493;49.058;12.190;2022-11-20T07:59:20;28.03;;;14.20;;
23676;SDS011;31493;49.058;12.190;2022-11-20T08:01:47;27.33;;;14.07;;
23676;SDS011;31493;49.058;12.190;2022-11-20T08:04:14;25.88;;;13.90;;
23676;SDS011;31493;49.058;12.190;2022-11-20T08:06:45;29.48;;;15.68;;
23676;SDS011;31493;49.058;12.190;2022-11-20T08:09:12;27.65;;;14.70;;
23676;SDS011;31493;49.058;12.190;2022-11-20T08:11:39;30.58;;;16.05;;
23676;SDS011;31493;49.058;12.190;2022-11-20T08:14:24;26.80;;;13.65;;
23676;SDS011;31493;49.058;12.190;2022-11-20T08:16:52;30.73;;;15.75;;
23676;SDS011;31493;49.058;12.190;2022-11-20T08:19:19;27.45;;;14.55;;
23676;SDS011;31493;49.058;12.190;2022-11-20T08:21:48;30.33;;;14.55;;
23676;SDS011;31493;49.058;12.190;2022-11-20T08:24:15;27.38;;;14.88;;
23676;SDS011;31493;49.058;12.190;2022-11-20T08:26:42;27.48;;;14.25;;
23676;SDS011;31493;49.058;12.190;2022-11-20T08:29:09;28.73;;;15.88;;
23676;SDS011;31493;49.058;12.190;2022-11-20T08:31:36;26.60;;;14.32;;
23676;SDS011;31493;49.058;12.190;2022-11-20T08:34:03;27.35;;;15.18;;
23676;SDS011;31493;49.058;12.190;2022-11-20T08:36:32;25.75;;;15.27;;
23676;SDS011;31493;49.058;12.190;2022-11-20T08:39:01;26.88;;;15.32;;
23676;SDS011;31493;49.058;12.190;2022-11-20T08:43:59;24.45;;;13.77;;
23676;SDS011;31493;49.058;12.190;2022-11-20T08:46:28;21.95;;;11.38;;
23676;SDS011;31493;49.058;12.190;2022-11-20T08:48:59;22.55;;;13.32;;
23676;SDS011;31493;49.058;12.190;2022-11-20T08:51:26;25.90;;;14.13;;
23676;SDS011;31493;49.058;12.190;2022-11-20T08:53:53;26.23;;;14.35;;
23676;SDS011;31493;49.058;12.190;2022-11-20T08:56:22;29.02;;;15.38;;
23676;SDS011;31493;49.058;12.190;2022-11-20T08:58:49;24.80;;;14.65;;
23676;SDS011;31493;49.058;12.190;2022-11-20T09:01:17;27.15;;;15.30;;
23676;SDS011;31493;49.058;12.190;2022-11-20T09:03:44;30.05;;;17.17;;
23676;SDS011;31493;49.058;12.190;2022-11-20T09:06:11;27.27;;;14.40;;
23676;SDS011;31493;49.058;12.190;2022-11-20T09:08:39;23.42;;;13.30;;
23676;SDS011;31493;49.058;12.190;2022-11-20T09:11:06;23.25;;;13.10;;
23676;SDS011;31493;49.058;12.190;2022-11-20T09:13:35;25.58;;;13.32;;
23676;SDS011;31493;49.058;12.190;2022-11-20T09:18:31;21.08;;;11.93;;
23676;SDS011;31493;49.058;12.190;2022-11-20T09:20:58;21.17;;;12.20;;
23676;SDS011;31493;49.058;12.190;2022-11-20T09:23:26;25.17;;;12.13;;
23676;SDS011;31493;49.058;12.190;2022-11-20T09:25:54;18.67;;;11.38;;
23676;SDS011;31493;49.058;12.190;2022-11-20T09:28:25;19.08;;;11.27;;
23676;SDS011;31493;49.058;12.190;2022-11-20T09:30:53;18.17;;;11.00;;
23676;SDS011;31493;49.058;12.190;2022-11-20T09:33:20;19.33;;;11.57;;
23676;SDS011;31493;49.058;12.190;2022-11-20T09:35:47;24.20;;;12.07;;
23676;SDS011;31493;49.058;12.190;2022-11-20T09:38:14;18.67;;;10.90;;
23676;SDS011;31493;49.058;12.190;2022-11-20T09:40:43;19.70;;;11.02;;
23676;SDS011;31493;49.058;12.190;2022-11-20T09:43:15;19.77;;;12.43;;
23676;SDS011;31493;49.058;12.190;2022-11-20T09:45:50;17.38;;;9.75;;
23676;SDS011;31493;49.058;12.190;2022-11-20T09:48:34;15.68;;;9.70;;
23676;SDS011;31493;49.058;12.190;2022-11-20T09:51:12;17.38;;;10.32;;
23676;SDS011;31493;49.058;12.190;2022-11-20T09:53:52;16.77;;;10.40;;
23676;SDS011;31493;49.058;12.190;2022-11-20T09:56:33;17.70;;;11.20;;
23676;SDS011;31493;49.058;12.190;2022-11-20T10:01:33;14.75;;;8.65;;
23676;SDS011;31493;49.058;12.190;2022-11-20T10:04:04;15.73;;;9.55;;
23676;SDS011;31493;49.058;12.190;2022-11-20T10:06:37;16.67;;;10.30;;
23676;SDS011;31493;49.058;12.190;2022-11-20T10:09:15;15.88;;;9.77;;
23676;SDS011;31493;49.058;12.190;2022-11-20T10:11:48;14.40;;;8.90;;
23676;SDS011;31493;49.058;12.190;2022-11-20T10:14:29;14.20;;;8.65;;
23676;SDS011;31493;49.058;12.190;2022-11-20T10:17:11;14.68;;;8.93;;
23676;SDS011;31493;49.058;12.190;2022-11-20T10:19:54;16.33;;;8.38;;
23676;SDS011;31493;49.058;12.190;2022-11-20T10:22:33;14.07;;;8.77;;
23676;SDS011;31493;49.058;12.190;2022-11-20T10:25:10;14.73;;;9.15;;
23676;SDS011;31493;49.058;12.190;2022-11-20T10:27:45;12.48;;;8.55;;
23676;SDS011;31493;49.058;12.190;2022-11-20T10:30:22;10.05;;;7.05;;
23676;SDS011;31493;49.058;12.190;2022-11-20T10:32:52;10.60;;;7.22;;
23676;SDS011;31493;49.058;12.190;2022-11-20T10:35:23;12.80;;;7.53;;
23676;SDS011;31493;49.058;12.190;2022-11-20T10:37:55;12.00;;;8.32;;
23676;SDS011;31493;49.058;12.190;2022-11-20T10:40:27;12.40;;;7.20;;
23676;SDS011;31493;49.058;12.190;2022-11-20T10:42:59;11.95;;;6.53;;
23676;SDS011;31493;49.058;12.190;2022-11-20T10:45:34;9.80;;;6.93;;
23676;SDS011;31493;49.058;12.190;2022-11-20T10:48:12;10.27;;;6.55;;
23676;SDS011;31493;49.058;12.190;2022-11-20T10:50:59;12.30;;;6.53;;
23676;SDS011;31493;49.058;12.190;2022-11-20T10:53:47;8.18;;;6.22;;
23676;SDS011;31493;49.058;12.190;2022-11-20T10:56:22;6.70;;;5.20;;
23676;SDS011;31493;49.058;12.190;2022-11-20T10:59:11;11.27;;;6.50;;
23676;SDS011;31493;49.058;12.190;2022-11-20T11:01:51;10.65;;;6.95;;
23676;SDS011;31493;49.058;12.190;2022-11-20T11:04:23;13.77;;;7.32;;
23676;SDS011;31493;49.058;12.190;2022-11-20T11:07:03;6.97;;;5.18;;
23676;SDS011;31493;49.058;12.190;2022-11-20T11:09:36;9.30;;;5.00;;
23676;SDS011;31493;49.058;12.190;2022-11-20T11:12:07;13.10;;;6.07;;
23676;SDS011;31493;49.058;12.190;2022-11-20T11:14:42;8.50;;;6.07;;
23676;SDS011;31493;49.058;12.190;2022-11-20T11:17:18;9.23;;;6.30;;
23676;SDS011;31493;49.058;12.190;2022-11-20T11:20:00;9.35;;;7.15;;
23676;SDS011;31493;49.058;12.190;2022-11-20T11:22:33;9.73;;;6.53;;
23676;SDS011;31493;49.058;12.190;2022-11-20T11:25:02;10.20;;;5.80;;
23676;SDS011;31493;49.058;12.190;2022-11-20T11:27:29;11.05;;;6.55;;
23676;SDS011;31493;49.058;12.190;2022-11-20T11:30:10;11.07;;;6.28;;
23676;SDS011;31493;49.058;12.190;2022-11-20T11:32:39;8.55;;;4.65;;
23676;SDS011;31493;49.058;12.190;2022-11-20T11:35:17;10.23;;;5.28;;
23676;SDS011;31493;49.058;12.190;2022-11-20T11:37:47;9.18;;;5.25;;
23676;SDS011;31493;49.058;12.190;2022-11-20T11:40:15;6.45;;;4.30;;
23676;SDS011;31493;49.058;12.190;2022-11-20T11:42:43;10.55;;;6.00;;
23676;SDS011;31493;49.058;12.190;2022-11-20T11:45:16;8.70;;;5.50;;
23676;SDS011;31493;49.058;12.190;2022-11-20T11:47:44;7.93;;;6.22;;
23676;SDS011;31493;49.058;12.190;2022-11-20T11:50:16;11.82;;;7.13;;
23676;SDS011;31493;49.058;12.190;2022-11-20T11:52:46;7.75;;;6.07;;
23676;SDS011;31493;49.058;12.190;2022-11-20T11:55:24;10.05;;;5.90;;
23676;SDS011;31493;49.058;12.190;2022-11-20T11:57:57;7.82;;;5.30;;
23676;SDS011;31493;49.058;12.190;2022-11-20T12:00:33;8.15;;;6.00;;
23676;SDS011;31493;49.058;12.190;2022-11-20T12:05:34;6.88;;;4.20;;
23676;SDS011;31493;49.058;12.190;2022-11-20T12:08:06;6.40;;;4.68;;
23676;SDS011;31493;49.058;12.190;2022-11-20T12:10:43;7.28;;;5.32;;
23676;SDS011;31493;49.058;12.190;2022-11-20T12:13:20;9.02;;;5.10;;
23676;SDS011;31493;49.058;12.190;2022-11-20T12:15:52;8.18;;;6.00;;
23676;SDS011;31493;49.058;12.190;2022-11-20T12:18:20;7.28;;;5.35;;
23676;SDS011;31493;49.058;12.190;2022-11-20T12:20:53;6.90;;;4.88;;
23676;SDS011;31493;49.058;12.190;2022-11-20T12:23:33;8.32;;;5.40;;
23676;SDS011;31493;49.058;12.190;2022-11-20T12:26:11;8.02;;;5.25;;
23676;SDS011;31493;49.058;12.190;2022-11-20T12:28:48;7.88;;;5.45;;
23676;SDS011;31493;49.058;12.190;2022-11-20T12:31:27;8.45;;;5.00;;
23676;SDS011;31493;49.058;12.190;2022-11-20T12:34:08;6.50;;;4.45;;
23676;SDS011;31493;49.058;12.190;2022-11-20T12:36:46;5.32;;;4.20;;
23676;SDS011;31493;49.058;12.190;2022-11-20T12:39:25;8.60;;;4.95;;
23676;SDS011;31493;49.058;12.190;2022-11-20T12:42:13;5.70;;;4.50;;
23676;SDS011;31493;49.058;12.190;2022-11-20T12:45:34;5.72;;;4.22;;
23676;SDS011;31493;49.058;12.190;2022-11-20T12:51:05;5.00;;;3.85;;
23676;SDS011;31493;49.058;12.190;2022-11-20T12:53:49;7.10;;;4.35;;
23676;SDS011;31493;49.058;12.190;2022-11-20T12:56:28;7.45;;;4.00;;
23676;SDS011;31493;49.058;12.190;2022-11-20T12:59:10;5.10;;;3.58;;
23676;SDS011;31493;49.058;12.190;2022-11-20T13:01:51;7.18;;;4.72;;
23676;SDS011;31493;49.058;12.190;2022-11-20T13:04:26;7.78;;;4.78;;
23676;SDS011;31493;49.058;12.190;2022-11-20T13:07:12;5.35;;;3.90;;
23676;SDS011;31493;49.058;12.190;2022-11-20T13:09:42;6.30;;;4.03;;
23676;SDS011;31493;49.058;12.190;2022-11-20T13:12:13;6.03;;;4.20;;
23676;SDS011;31493;49.058;12.190;2022-11-20T13:14:44;6.50;;;4.03;;
23676;SDS011;31493;49.058;12.190;2022-11-20T13:17:17;6.88;;;4.40;;
23676;SDS011;31493;49.058;12.190;2022-11-20T13:19:48;6.47;;;4.07;;
23676;SDS011;31493;49.058;12.190;2022-11-20T13:22:24;7.22;;;4.20;;
23676;SDS011;31493;49.058;12.190;2022-11-20T13:24:52;6.93;;;4.15;;
23676;SDS011;31493;49.058;12.190;2022-11-20T13:27:20;5.13;;;3.72;;
23676;SDS011;31493;49.058;12.190;2022-11-20T13:30:02;5.18;;;3.85;;
23676;SDS011;31493;49.058;12.190;2022-11-20T13:32:47;11.73;;;4.90;;
23676;SDS011;31493;49.058;12.190;2022-11-20T13:35:23;5.63;;;4.25;;
23676;SDS011;31493;49.058;12.190;2022-11-20T13:37:59;6.03;;;3.45;;
23676;SDS011;31493;49.058;12.190;2022-11-20T13:40:29;5.57;;;4.07;;
23676;SDS011;31493;49.058;12.190;2022-11-20T13:43:01;6.47;;;4.57;;
23676;SDS011;31493;49.058;12.190;2022-11-20T13:45:34;6.65;;;4.15;;
23676;SDS011;31493;49.058;12.190;2022-11-20T13:48:02;4.95;;;4.32;;
23676;SDS011;31493;49.058;12.190;2022-11-20T13:50:38;6.13;;;4.20;;
23676;SDS011;31493;49.058;12.190;2022-11-20T13:53:14;6.60;;;4.15;;
23676;SDS011;31493;49.058;12.190;2022-11-20T13:55:57;5.20;;;4.10;;
23676;SDS011;31493;49.058;12.190;2022-11-20T13:58:33;5.03;;;4.10;;
23676;SDS011;31493;49.058;12.190;2022-11-20T14:01:11;4.82;;;3.13;;
23676;SDS011;31493;49.058;12.190;2022-11-20T14:03:43;3.00;;;2.70;;
23676;SDS011;31493;49.058;12.190;2022-11-20T14:06:11;4.88;;;2.50;;
23676;SDS011;31493;49.058;12.190;2022-11-20T14:08:43;4.63;;;2.17;;
23676;SDS011;31493;49.058;12.190;2022-11-20T14:11:15;4.57;;;2.10;;
23676;SDS011;31493;49.058;12.190;2022-11-20T14:13:53;4.60;;;2.03;;
23676;SDS011;31493;49.058;12.190;2022-11-20T14:16:23;2.75;;;1.80;;
23676;SDS011;31493;49.058;12.190;2022-11-20T14:18:51;3.00;;;2.00;;
23676;SDS011;31493;49.058;12.190;2022-11-20T14:21:22;3.28;;;2.50;;
23676;SDS011;31493;49.058;12.190;2022-11-20T14:23:52;4.47;;;2.80;;
23676;SDS011;31493;49.058;12.190;2022-11-20T14:26:21;3.72;;;2.40;;
23676;SDS011;31493;49.058;12.190;2022-11-20T14:28:49;2.92;;;2.63;;
23676;SDS011;31493;49.058;12.190;2022-11-20T14:33:50;3.20;;;2.42;;
23676;SDS011;31493;49.058;12.190;2022-11-20T14:36:18;3.55;;;2.42;;
23676;SDS011;31493;49.058;12.190;2022-11-20T14:38:49;3.08;;;1.90;;
23676;SDS011;31493;49.058;12.190;2022-11-20T14:41:17;4.85;;;2.22;;
23676;SDS011;31493;49.058;12.190;2022-11-20T14:43:47;14.00;;;10.20;;
23676;SDS011;31493;49.058;12.190;2022-11-20T14:46:19;24.98;;;18.63;;
23676;SDS011;31493;49.058;12.190;2022-11-20T14:48:48;7.72;;;6.28;;
23676;SDS011;31493;49.058;12.190;2022-11-20T14:51:25;7.20;;;5.90;;
23676;SDS011;31493;49.058;12.190;2022-11-20T14:53:56;11.38;;;9.20;;
23676;SDS011;31493;49.058;12.190;2022-11-20T14:56:23;14.68;;;11.15;;
23676;SDS011;31493;49.058;12.190;2022-11-20T14:58:58;13.55;;;10.15;;